Time;durP1;ratioP1;P1;durP2;ratioP2;P2;SDS_P1;SDS_P2;PMS_P1;PMS_P2;Temp;Humidity;BMP_temperature;BMP_pressure;BME280_temperature;BME280_humidity;BME280_pressure;Samples;Min_cycle;Max_cycle;Signal;HPM_P1;HPM_P2
2021/12/02 00:00:48;;;;;;;36.75;22.88;;;;;;;;;;4842001;29;20083;-77
2021/12/02 00:03:14;;;;;;;30.13;19.83;;;;;;;;;;4824328;29;20025;-77
2021/12/02 00:05:40;;;;;;;36.00;22.88;;;;;;;;;;4841831;29;20046;-77
2021/12/02 00:08:06;;;;;;;32.15;20.65;;;;;;;;;;4824402;29;20038;-77
2021/12/02 00:10:34;;;;;;;30.23;20.15;;;;;;;;;;4841086;29;20160;-76
2021/12/02 00:13:01;;;;;;;32.15;19.75;;;;;;;;;;4841240;29;20060;-76
2021/12/02 00:23:37;;;;;;;20.00;14.55;;;;;;;;;;4840990;29;20098;-77
2021/12/02 00:26:09;;;;;;;23.58;15.68;;;;;;;;;;4841047;29;20075;-77
2021/12/02 00:28:35;;;;;;;;;;;;;;;;;;4841380;29;20038;-76
2021/12/02 00:31:01;;;;;;;28.13;18.63;;;;;;;;;;4824065;29;19921;-76
2021/12/02 00:33:30;;;;;;;27.08;17.58;;;;;;;;;;4840978;29;20061;-76
2021/12/02 00:35:56;;;;;;;35.20;22.58;;;;;;;;;;4823865;29;20125;-76
2021/12/02 00:38:23;;;;;;;39.03;24.10;;;;;;;;;;4840789;29;20041;-76
2021/12/02 00:40:49;;;;;;;34.58;22.77;;;;;;;;;;4832343;29;20065;-76
2021/12/02 00:43:15;;;;;;;31.80;21.98;;;;;;;;;;4823004;29;20038;-77
2021/12/02 00:45:42;;;;;;;28.77;21.20;;;;;;;;;;4830978;29;20504;-76
2021/12/02 00:48:09;;;;;;;34.13;25.60;;;;;;;;;;4841288;29;20038;-76
2021/12/02 00:50:35;;;;;;;41.83;28.63;;;;;;;;;;4841848;29;20045;-77
2021/12/02 00:53:01;;;;;;;44.80;30.35;;;;;;;;;;4840686;29;20052;-76
2021/12/02 00:55:27;;;;;;;45.42;33.03;;;;;;;;;;4839368;29;20053;-77
2021/12/02 00:57:54;;;;;;;29.08;22.65;;;;;;;;;;4840425;29;20037;-76
2021/12/02 01:00:20;;;;;;;28.45;20.05;;;;;;;;;;4840059;29;20117;-76
2021/12/02 01:02:49;;;;;;;24.52;16.27;;;;;;;;;;4831101;29;20107;-77
2021/12/02 01:05:15;;;;;;;34.40;21.85;;;;;;;;;;4837856;29;20389;-77
2021/12/02 01:07:42;;;;;;;25.38;15.73;;;;;;;;;;4840168;29;20131;-77
2021/12/02 01:10:08;;;;;;;23.73;15.13;;;;;;;;;;4838340;29;20049;-77
2021/12/02 01:12:36;;;;;;;31.58;23.05;;;;;;;;;;4840505;29;20057;-76
2021/12/02 01:15:06;;;;;;;36.80;27.05;;;;;;;;;;4828646;29;20038;-76
2021/12/02 01:17:32;;;;;;;36.25;26.23;;;;;;;;;;4838254;29;20046;-77
2021/12/02 01:19:58;;;;;;;49.33;35.08;;;;;;;;;;4838664;29;20415;-77
2021/12/02 01:22:28;;;;;;;50.97;35.08;;;;;;;;;;4839615;29;20037;-77
2021/12/02 01:24:55;;;;;;;54.22;35.60;;;;;;;;;;4830123;29;20034;-77
2021/12/02 01:27:21;;;;;;;34.30;25.15;;;;;;;;;;4821519;29;20038;-77
2021/12/02 01:29:49;;;;;;;37.53;26.05;;;;;;;;;;4831986;29;20034;-77
2021/12/02 01:32:15;;;;;;;42.15;30.48;;;;;;;;;;4830619;29;20042;-77
2021/12/02 01:34:44;;;;;;;27.63;20.35;;;;;;;;;;4822603;29;20031;-77
2021/12/02 01:37:11;;;;;;;31.30;22.33;;;;;;;;;;4821935;29;20081;-77
2021/12/02 01:39:37;;;;;;;30.48;21.25;;;;;;;;;;4841760;29;20046;-77
2021/12/02 01:42:03;;;;;;;30.38;20.33;;;;;;;;;;4850605;29;20048;-77
2021/12/02 01:44:29;;;;;;;20.52;14.68;;;;;;;;;;4821503;29;20039;-77
2021/12/02 01:46:58;;;;;;;19.52;13.75;;;;;;;;;;4826319;29;20117;-76
2021/12/02 01:49:26;;;;;;;21.98;15.98;;;;;;;;;;4831797;29;20129;-77
2021/12/02 01:51:55;;;;;;;32.50;20.10;;;;;;;;;;4821652;29;20034;-77
2021/12/02 01:54:22;;;;;;;32.28;21.23;;;;;;;;;;4821313;29;20062;-78
2021/12/02 01:56:53;;;;;;;44.33;27.65;;;;;;;;;;4835570;29;20646;-76
2021/12/02 01:59:33;;;;;;;36.72;24.80;;;;;;;;;;4844856;29;20045;-77
2021/12/02 02:01:59;;;;;;;25.85;18.38;;;;;;;;;;4840157;29;20041;-76
2021/12/02 02:04:26;;;;;;;30.27;21.60;;;;;;;;;;4832487;29;20049;-77
2021/12/02 02:06:57;;;;;;;25.75;17.85;;;;;;;;;;4822015;29;20091;-77
2021/12/02 02:09:24;;;;;;;30.65;21.05;;;;;;;;;;4828917;29;20049;-77
2021/12/02 02:11:50;;;;;;;39.15;23.92;;;;;;;;;;4839598;29;20046;-76
2021/12/02 02:14:16;;;;;;;22.85;15.25;;;;;;;;;;4838126;29;20500;-77
2021/12/02 02:16:42;;;;;;;22.63;16.23;;;;;;;;;;4838045;29;20500;-77
2021/12/02 02:19:11;;;;;;;26.38;18.02;;;;;;;;;;4838491;29;20066;-77
2021/12/02 02:21:37;;;;;;;26.00;16.58;;;;;;;;;;4839596;29;20037;-77
2021/12/02 02:24:05;;;;;;;22.23;14.30;;;;;;;;;;4837346;29;20465;-77
2021/12/02 02:26:34;;;;;;;19.10;12.60;;;;;;;;;;4839222;29;20117;-77
2021/12/02 02:29:00;;;;;;;21.15;12.48;;;;;;;;;;4838704;29;20045;-76
2021/12/02 02:31:28;;;;;;;15.48;9.65;;;;;;;;;;4852895;29;20780;-77
2021/12/02 02:33:54;;;;;;;16.77;9.50;;;;;;;;;;4838771;29;20030;-77
2021/12/02 02:36:24;;;;;;;17.20;10.27;;;;;;;;;;4838902;29;20053;-77
2021/12/02 02:38:57;;;;;;;12.20;9.05;;;;;;;;;;4839007;29;20030;-77
2021/12/02 02:41:25;;;;;;;13.85;9.48;;;;;;;;;;4838727;29;20125;-77
2021/12/02 02:43:52;;;;;;;15.35;9.32;;;;;;;;;;4838724;29;20026;-77
2021/12/02 02:46:22;;;;;;;15.07;8.27;;;;;;;;;;4838294;29;20049;-77
2021/12/02 02:48:48;;;;;;;14.98;9.93;;;;;;;;;;4838957;29;20030;-77
2021/12/02 02:51:14;;;;;;;18.02;10.00;;;;;;;;;;4822129;29;20071;-77
2021/12/02 02:53:40;;;;;;;13.10;8.07;;;;;;;;;;4822448;29;20041;-77
2021/12/02 02:56:10;;;;;;;13.75;9.43;;;;;;;;;;4835952;29;20482;-77
2021/12/02 03:06:52;;;;;;;14.27;8.18;;;;;;;;;;4829779;29;20437;-77
2021/12/02 03:11:52;;;;;;;14.93;8.52;;;;;;;;;;4828982;29;20099;-77
2021/12/02 03:14:27;;;;;;;15.52;8.23;;;;;;;;;;4819181;29;20504;-77
2021/12/02 03:16:53;;;;;;;23.10;13.48;;;;;;;;;;4828748;29;20042;-77
2021/12/02 03:19:27;;;;;;;18.10;10.65;;;;;;;;;;4838733;29;20129;-77
2021/12/02 03:21:53;;;;;;;14.20;9.50;;;;;;;;;;4838015;29;20050;-77
2021/12/02 03:24:19;;;;;;;18.73;11.90;;;;;;;;;;4838515;29;20152;-77
2021/12/02 03:26:46;;;;;;;13.60;9.57;;;;;;;;;;4825343;29;20453;-77
2021/12/02 03:29:12;;;;;;;20.65;11.48;;;;;;;;;;4825509;29;20384;-77
2021/12/02 03:31:38;;;;;;;21.60;11.13;;;;;;;;;;4842261;29;20042;-77
2021/12/02 03:34:07;;;;;;;13.88;8.15;;;;;;;;;;4841971;29;20034;-77
2021/12/02 03:36:33;;;;;;;16.30;8.68;;;;;;;;;;4841857;29;20061;-77
2021/12/02 03:38:59;;;;;;;16.98;9.00;;;;;;;;;;4841425;29;20038;-77
2021/12/02 03:41:25;;;;;;;12.48;6.82;;;;;;;;;;4824922;29;20784;-76
2021/12/02 03:43:51;;;;;;;18.30;8.57;;;;;;;;;;4824509;29;20117;-77
2021/12/02 03:46:19;;;;;;;13.43;8.75;;;;;;;;;;4841533;29;20038;-77
2021/12/02 03:48:45;;;;;;;18.75;10.15;;;;;;;;;;4827842;29;20067;-76
2021/12/02 03:51:11;;;;;;;15.25;8.90;;;;;;;;;;4824015;29;20034;-77
2021/12/02 03:53:38;;;;;;;20.92;10.98;;;;;;;;;;4832095;29;20046;-76
2021/12/02 03:56:06;;;;;;;18.67;10.68;;;;;;;;;;4841685;29;20469;-76
2021/12/02 03:58:32;;;;;;;17.83;9.73;;;;;;;;;;4840665;29;20042;-77
2021/12/02 04:00:58;;;;;;;12.88;8.40;;;;;;;;;;4841966;29;20026;-77
2021/12/02 04:03:25;;;;;;;12.75;6.93;;;;;;;;;;4840516;29;20041;-77
2021/12/02 04:05:51;;;;;;;13.27;5.85;;;;;;;;;;4841063;29;20073;-77
2021/12/02 04:08:17;;;;;;;9.55;6.40;;;;;;;;;;4840707;29;20556;-76
2021/12/02 04:10:45;;;;;;;11.23;5.68;;;;;;;;;;4841650;29;20468;-77
2021/12/02 04:13:26;;;;;;;12.50;5.65;;;;;;;;;;4840609;29;20053;-77
2021/12/02 04:15:57;;;;;;;12.07;4.82;;;;;;;;;;4824610;29;20147;-77
2021/12/02 04:18:23;;;;;;;10.23;4.45;;;;;;;;;;4831088;29;20038;-77
2021/12/02 04:20:49;;;;;;;7.80;4.50;;;;;;;;;;4830897;29;20062;-76
2021/12/02 04:23:15;;;;;;;6.63;3.50;;;;;;;;;;4840312;29;20102;-77
2021/12/02 04:25:41;;;;;;;11.25;5.55;;;;;;;;;;4841214;29;20038;-76
2021/12/02 04:28:07;;;;;;;6.72;2.97;;;;;;;;;;4840967;29;20046;-76
2021/12/02 04:30:33;;;;;;;6.70;3.60;;;;;;;;;;4824009;29;20048;-76
2021/12/02 04:32:59;;;;;;;8.38;3.45;;;;;;;;;;4822606;29;20151;-76
2021/12/02 04:35:25;;;;;;;6.53;3.30;;;;;;;;;;4835825;29;20125;-76
2021/12/02 04:37:52;;;;;;;6.03;3.22;;;;;;;;;;4840174;29;20049;-77
2021/12/02 04:40:18;;;;;;;8.00;3.75;;;;;;;;;;4828943;29;20055;-76
2021/12/02 04:42:45;;;;;;;8.27;4.10;;;;;;;;;;4822514;29;20030;-77
2021/12/02 04:45:11;;;;;;;7.32;4.25;;;;;;;;;;4821863;29;20163;-76
2021/12/02 04:47:37;;;;;;;10.50;5.63;;;;;;;;;;4822268;29;20034;-76
2021/12/02 04:50:04;;;;;;;7.88;3.50;;;;;;;;;;4821732;29;20470;-77
2021/12/02 04:52:30;;;;;;;8.90;3.10;;;;;;;;;;4822034;29;20038;-76
2021/12/02 04:54:56;;;;;;;7.00;3.15;;;;;;;;;;4826310;29;20049;-76
2021/12/02 04:57:22;;;;;;;8.05;3.15;;;;;;;;;;4840363;29;20418;-77
2021/12/02 04:59:48;;;;;;;10.60;2.85;;;;;;;;;;4839765;29;20098;-76
2021/12/02 05:02:14;;;;;;;6.85;2.85;;;;;;;;;;4828365;29;20041;-76
2021/12/02 05:04:40;;;;;;;11.80;2.90;;;;;;;;;;4821875;29;20042;-76
2021/12/02 05:07:06;;;;;;;9.10;3.38;;;;;;;;;;4830822;29;20350;-76
2021/12/02 05:09:32;;;;;;;11.38;3.70;;;;;;;;;;4823679;29;20107;-76
2021/12/02 05:11:58;;;;;;;10.68;5.75;;;;;;;;;;4833267;29;20389;-76
2021/12/02 05:14:24;;;;;;;12.25;6.53;;;;;;;;;;4820654;29;20042;-77
2021/12/02 05:16:50;;;;;;;15.70;6.47;;;;;;;;;;4821703;29;20050;-77
2021/12/02 05:19:16;;;;;;;13.48;6.40;;;;;;;;;;4821877;29;20042;-76
2021/12/02 05:21:42;;;;;;;15.63;5.50;;;;;;;;;;4823217;29;20477;-77
2021/12/02 05:24:08;;;;;;;13.07;4.93;;;;;;;;;;4839871;29;20059;-77
2021/12/02 05:26:35;;;;;;;10.75;5.15;;;;;;;;;;4823310;29;20046;-77
2021/12/02 05:29:01;;;;;;;15.35;5.72;;;;;;;;;;4837922;29;20073;-76
2021/12/02 05:31:27;;;;;;;14.10;6.53;;;;;;;;;;4839764;29;20038;-77
2021/12/02 05:33:53;;;;;;;13.55;6.50;;;;;;;;;;4839177;29;20388;-78
2021/12/02 05:36:19;;;;;;;13.55;6.25;;;;;;;;;;4839805;29;20045;-77
2021/12/02 05:38:45;;;;;;;14.65;7.93;;;;;;;;;;4838898;29;20038;-77
2021/12/02 05:41:14;;;;;;;16.23;8.15;;;;;;;;;;4822729;29;20060;-76
2021/12/02 05:43:40;;;;;;;14.70;7.15;;;;;;;;;;4839029;29;20038;-77
2021/12/02 05:46:06;;;;;;;21.23;10.02;;;;;;;;;;4832492;29;20065;-77
2021/12/02 05:48:32;;;;;;;23.58;12.07;;;;;;;;;;4822252;29;20827;-76
2021/12/02 05:50:58;;;;;;;28.90;13.25;;;;;;;;;;4821819;29;20034;-77
2021/12/02 05:53:24;;;;;;;38.15;18.88;;;;;;;;;;4821372;29;20427;-77
2021/12/02 05:55:50;;;;;;;26.17;13.75;;;;;;;;;;4821611;29;20038;-77
2021/12/02 05:58:16;;;;;;;28.35;14.70;;;;;;;;;;4825048;29;20094;-77
2021/12/02 06:00:43;;;;;;;25.70;14.70;;;;;;;;;;4839122;29;20026;-76
2021/12/02 06:03:09;;;;;;;23.17;11.70;;;;;;;;;;4839264;29;20034;-76
2021/12/02 06:05:35;;;;;;;24.17;12.70;;;;;;;;;;4821497;29;20759;-76
2021/12/02 06:08:03;;;;;;;24.35;12.35;;;;;;;;;;4833450;29;20046;-77
2021/12/02 06:10:29;;;;;;;29.45;15.05;;;;;;;;;;4839337;29;20061;-77
2021/12/02 06:12:56;;;;;;;30.67;17.60;;;;;;;;;;4839103;29;20052;-76
2021/12/02 06:15:22;;;;;;;29.67;16.52;;;;;;;;;;4836836;29;20082;-77
2021/12/02 06:17:48;;;;;;;42.00;22.80;;;;;;;;;;4835343;29;20077;-76
2021/12/02 06:20:15;;;;;;;28.45;15.65;;;;;;;;;;4835746;29;20034;-76
2021/12/02 06:22:41;;;;;;;38.58;22.52;;;;;;;;;;4842889;29;20090;-77
2021/12/02 06:27:46;;;;;;;42.88;23.05;;;;;;;;;;4832202;29;20048;-77
2021/12/02 06:30:13;;;;;;;36.53;20.42;;;;;;;;;;4830757;29;20056;-78
2021/12/02 06:32:39;;;;;;;33.58;17.45;;;;;;;;;;4836905;29;20038;-78
2021/12/02 06:35:05;;;;;;;46.63;24.90;;;;;;;;;;4839474;29;20034;-78
2021/12/02 06:37:31;;;;;;;43.55;23.98;;;;;;;;;;4830590;29;20045;-78
2021/12/02 06:39:57;;;;;;;44.45;23.50;;;;;;;;;;4822534;29;20058;-78
2021/12/02 06:42:23;;;;;;;29.92;17.45;;;;;;;;;;4834704;29;20049;-78
2021/12/02 06:44:49;;;;;;;33.92;17.42;;;;;;;;;;4838563;29;20030;-78
2021/12/02 06:47:15;;;;;;;37.03;19.98;;;;;;;;;;4837908;29;20495;-78
2021/12/02 06:49:41;;;;;;;41.00;22.92;;;;;;;;;;4849104;29;20042;-78
2021/12/02 06:52:14;;;;;;;49.60;25.48;;;;;;;;;;4835197;29;20038;-78
2021/12/02 06:54:40;;;;;;;33.83;20.27;;;;;;;;;;4831091;29;20049;-77
2021/12/02 06:57:07;;;;;;;34.30;20.73;;;;;;;;;;4839535;29;20083;-78
2021/12/02 06:59:33;;;;;;;31.17;18.30;;;;;;;;;;4838430;29;20030;-78
2021/12/02 07:01:59;;;;;;;36.60;20.63;;;;;;;;;;4839189;29;20034;-78
2021/12/02 07:04:25;;;;;;;43.03;24.17;;;;;;;;;;4840105;29;20038;-78
2021/12/02 07:06:51;;;;;;;41.95;24.63;;;;;;;;;;4849975;29;20650;-78
2021/12/02 07:09:17;;;;;;;39.53;23.88;;;;;;;;;;4844449;29;20533;-78
2021/12/02 07:11:43;;;;;;;51.25;28.67;;;;;;;;;;4841353;29;20106;-78
2021/12/02 07:14:14;;;;;;;39.78;22.98;;;;;;;;;;4853256;29;20045;-77
2021/12/02 07:16:41;;;;;;;39.10;21.65;;;;;;;;;;4824142;29;20042;-77
2021/12/02 07:19:08;;;;;;;38.25;19.40;;;;;;;;;;4851014;29;20033;-77
2021/12/02 07:21:37;;;;;;;42.55;23.33;;;;;;;;;;4838286;29;20042;-77
2021/12/02 07:24:03;;;;;;;48.20;26.55;;;;;;;;;;4841419;29;20030;-78
2021/12/02 07:26:29;;;;;;;36.55;20.60;;;;;;;;;;4844884;29;20136;-77
2021/12/02 07:28:55;;;;;;;45.63;25.58;;;;;;;;;;4832864;29;20390;-78
2021/12/02 07:31:22;;;;;;;36.20;21.40;;;;;;;;;;4838899;29;20492;-77
2021/12/02 07:33:50;;;;;;;38.05;23.40;;;;;;;;;;4839615;29;20038;-78
2021/12/02 07:36:17;;;;;;;29.05;17.85;;;;;;;;;;4841744;29;20042;-78
2021/12/02 07:38:44;;;;;;;27.70;17.98;;;;;;;;;;4845289;29;20037;-78
2021/12/02 07:41:10;;;;;;;31.02;18.38;;;;;;;;;;4860167;29;20105;-78
2021/12/02 07:43:37;;;;;;;43.00;21.88;;;;;;;;;;4844187;29;20030;-77
2021/12/02 07:46:04;;;;;;;39.65;20.40;;;;;;;;;;4842131;29;20044;-78
2021/12/02 07:48:30;;;;;;;36.47;19.63;;;;;;;;;;4841101;29;20235;-77
2021/12/02 07:50:57;;;;;;;35.45;19.77;;;;;;;;;;4832463;29;20045;-77
2021/12/02 07:53:26;;;;;;;30.23;18.40;;;;;;;;;;4825326;29;20541;-78
2021/12/02 07:55:54;;;;;;;33.63;20.58;;;;;;;;;;4824942;29;20041;-78
2021/12/02 07:58:21;;;;;;;36.63;19.83;;;;;;;;;;4837759;29;20038;-78
2021/12/02 08:00:47;;;;;;;27.80;16.88;;;;;;;;;;4837845;29;20057;-78
2021/12/02 08:03:13;;;;;;;46.88;25.17;;;;;;;;;;4845878;29;20088;-77
2021/12/02 08:05:40;;;;;;;37.05;23.17;;;;;;;;;;4846276;29;20038;-77
2021/12/02 08:08:06;;;;;;;44.75;22.65;;;;;;;;;;4842252;29;20041;-78
2021/12/02 08:10:32;;;;;;;43.53;23.27;;;;;;;;;;4825470;29;20052;-78
2021/12/02 08:13:02;;;;;;;43.60;23.55;;;;;;;;;;4823422;29;20038;-78
2021/12/02 08:15:28;;;;;;;55.20;28.73;;;;;;;;;;4830774;29;20047;-78
2021/12/02 08:17:55;;;;;;;57.80;31.35;;;;;;;;;;4847145;29;20073;-78
2021/12/02 08:20:23;;;;;;;41.75;24.92;;;;;;;;;;4836708;29;20037;-78
2021/12/02 08:22:49;;;;;;;43.83;26.63;;;;;;;;;;4839010;29;20429;-78
2021/12/02 08:25:16;;;;;;;50.22;27.10;;;;;;;;;;4823260;29;20034;-77
2021/12/02 08:27:42;;;;;;;55.63;29.05;;;;;;;;;;4840673;29;20040;-77
2021/12/02 08:30:10;;;;;;;67.18;36.42;;;;;;;;;;4821349;29;20472;-77
2021/12/02 08:32:39;;;;;;;59.20;33.50;;;;;;;;;;4841143;29;20030;-78
2021/12/02 08:35:05;;;;;;;53.42;29.10;;;;;;;;;;4824664;29;20082;-78
2021/12/02 08:37:34;;;;;;;47.25;28.75;;;;;;;;;;4824337;29;20477;-78
2021/12/02 08:40:00;;;;;;;52.38;31.30;;;;;;;;;;4846346;29;20094;-78
2021/12/02 08:42:31;;;;;;;55.17;27.08;;;;;;;;;;4841027;29;20041;-78
2021/12/02 08:44:57;;;;;;;49.17;25.58;;;;;;;;;;4823243;29;20068;-78
2021/12/02 08:47:24;;;;;;;39.67;23.92;;;;;;;;;;4840181;29;20037;-78
2021/12/02 08:49:54;;;;;;;44.47;24.40;;;;;;;;;;4823597;29;20080;-78
2021/12/02 08:52:21;;;;;;;44.60;27.65;;;;;;;;;;4823789;29;20042;-78
2021/12/02 08:54:48;;;;;;;41.90;25.20;;;;;;;;;;4839212;29;20064;-78
2021/12/02 08:57:13;;;;;;;43.33;24.77;;;;;;;;;;4823980;29;20121;-77
2021/12/02 08:59:42;;;;;;;45.33;23.90;;;;;;;;;;4823753;29;20129;-78
2021/12/02 09:02:08;;;;;;;43.00;25.05;;;;;;;;;;4836197;29;20034;-77
2021/12/02 09:04:34;;;;;;;45.10;24.77;;;;;;;;;;4823446;29;20034;-77
2021/12/02 09:07:00;;;;;;;36.80;22.42;;;;;;;;;;4839657;29;20045;-77
2021/12/02 09:09:27;;;;;;;39.72;23.63;;;;;;;;;;4840588;29;20396;-78
2021/12/02 09:11:55;;;;;;;44.22;25.33;;;;;;;;;;4840412;29;20037;-78
2021/12/02 09:14:21;;;;;;;35.97;22.45;;;;;;;;;;4833852;29;20067;-78
2021/12/02 09:16:49;;;;;;;44.30;22.40;;;;;;;;;;4812278;29;20043;-77
2021/12/02 09:19:15;;;;;;;42.78;24.92;;;;;;;;;;4825423;29;20046;-78
2021/12/02 09:21:42;;;;;;;43.00;25.15;;;;;;;;;;4826503;29;20113;-77
2021/12/02 09:24:08;;;;;;;43.08;24.42;;;;;;;;;;4839371;29;20038;-77
2021/12/02 09:26:34;;;;;;;39.00;24.17;;;;;;;;;;4839594;29;20034;-78
2021/12/02 09:29:00;;;;;;;34.92;21.52;;;;;;;;;;4820356;29;20090;-78
2021/12/02 09:31:26;;;;;;;36.60;21.30;;;;;;;;;;4822751;29;20045;-78
2021/12/02 09:33:52;;;;;;;36.33;23.42;;;;;;;;;;4845200;29;20178;-78
2021/12/02 09:36:18;;;;;;;35.40;21.27;;;;;;;;;;4839423;29;20049;-78
2021/12/02 09:38:45;;;;;;;35.80;19.35;;;;;;;;;;4835654;29;20492;-78
2021/12/02 09:41:11;;;;;;;32.88;19.80;;;;;;;;;;4830408;29;20062;-77
2021/12/02 09:43:38;;;;;;;32.65;19.02;;;;;;;;;;4829977;29;20046;-78
2021/12/02 09:46:04;;;;;;;34.15;19.90;;;;;;;;;;4836056;29;20034;-78
2021/12/02 09:48:31;;;;;;;39.53;21.92;;;;;;;;;;4832680;29;20046;-78
2021/12/02 09:53:34;;;;;;;30.08;19.73;;;;;;;;;;4830603;29;20057;-78
2021/12/02 09:56:14;;;;;;;30.15;17.90;;;;;;;;;;4824347;29;20136;-77
2021/12/02 09:58:40;;;;;;;26.80;14.15;;;;;;;;;;4833726;29;20410;-78
2021/12/02 10:03:36;;;;;;;28.33;16.20;;;;;;;;;;4825456;29;20046;-77
2021/12/02 10:06:07;;;;;;;40.00;23.80;;;;;;;;;;4853973;29;20153;-77
2021/12/02 10:08:56;;;;;;;36.70;21.65;;;;;;;;;;4838757;29;20038;-77
2021/12/02 10:11:34;;;;;;;33.33;20.00;;;;;;;;;;4838825;29;20057;-78
2021/12/02 10:14:23;;;;;;;36.08;20.45;;;;;;;;;;4834617;29;20593;-78
2021/12/02 10:16:50;;;;;;;35.38;18.75;;;;;;;;;;4832883;29;20125;-77
2021/12/02 10:19:22;;;;;;;33.38;21.48;;;;;;;;;;4838523;29;20045;-78
2021/12/02 10:24:20;;;;;;;40.03;23.40;;;;;;;;;;4839570;29;20094;-77
2021/12/02 10:27:06;;;;;;;35.38;20.63;;;;;;;;;;4826958;29;20041;-78
2021/12/02 10:29:33;;;;;;;39.65;23.45;;;;;;;;;;4839209;29;20728;-77
2021/12/02 10:32:13;;;;;;;34.10;20.83;;;;;;;;;;4836186;29;20030;-78
2021/12/02 10:34:46;;;;;;;29.58;18.77;;;;;;;;;;4831140;29;20089;-78
2021/12/02 10:37:12;;;;;;;37.75;20.60;;;;;;;;;;4833095;29;20074;-77
2021/12/02 10:39:38;;;;;;;27.83;16.98;;;;;;;;;;4838602;29;20057;-78
2021/12/02 10:42:06;;;;;;;31.90;17.10;;;;;;;;;;4844924;29;20041;-78
2021/12/02 10:44:36;;;;;;;28.92;18.73;;;;;;;;;;4848433;29;20037;-78
2021/12/02 10:47:04;;;;;;;35.58;20.65;;;;;;;;;;4840442;29;20428;-78
2021/12/02 10:49:32;;;;;;;31.52;20.05;;;;;;;;;;4843613;29;20045;-78
2021/12/02 10:52:01;;;;;;;26.65;18.48;;;;;;;;;;4854128;29;20500;-77
2021/12/02 10:54:32;;;;;;;40.42;23.08;;;;;;;;;;4836925;29;20048;-78
2021/12/02 10:57:01;;;;;;;29.83;20.70;;;;;;;;;;4845794;29;20037;-78
2021/12/02 10:59:34;;;;;;;35.17;21.60;;;;;;;;;;4836932;29;20067;-78
2021/12/02 11:02:06;;;;;;;27.80;16.63;;;;;;;;;;4826778;29;20042;-78
2021/12/02 11:04:39;;;;;;;22.58;15.38;;;;;;;;;;4831664;29;20033;-78
2021/12/02 11:07:10;;;;;;;22.60;14.63;;;;;;;;;;4848541;29;20068;-78
2021/12/02 11:09:37;;;;;;;32.13;21.30;;;;;;;;;;4838000;29;20038;-78
2021/12/02 11:12:23;;;;;;;33.42;21.15;;;;;;;;;;4838666;29;20033;-78
2021/12/02 11:14:53;;;;;;;34.35;21.23;;;;;;;;;;4831953;29;20049;-77
2021/12/02 11:17:20;;;;;;;34.10;21.73;;;;;;;;;;4833871;29;20066;-77
2021/12/02 11:19:48;;;;;;;33.15;21.38;;;;;;;;;;4834848;29;20046;-78
2021/12/02 11:22:17;;;;;;;30.73;18.48;;;;;;;;;;4855174;29;20025;-78
2021/12/02 11:24:43;;;;;;;29.02;19.90;;;;;;;;;;4831492;29;20121;-78
2021/12/02 11:27:09;;;;;;;26.00;16.73;;;;;;;;;;4838829;29;20030;-78
2021/12/02 11:29:47;;;;;;;27.40;17.90;;;;;;;;;;4846184;29;20121;-78
2021/12/02 11:32:24;;;;;;;34.03;22.25;;;;;;;;;;4837883;29;20098;-78
2021/12/02 11:35:02;;;;;;;39.13;24.83;;;;;;;;;;4832373;29;20038;-78
2021/12/02 11:37:29;;;;;;;33.90;21.38;;;;;;;;;;4822783;29;20041;-78
2021/12/02 11:39:56;;;;;;;33.83;20.63;;;;;;;;;;4835403;29;20048;-78
2021/12/02 11:42:22;;;;;;;27.45;15.95;;;;;;;;;;4836854;29;20034;-78
2021/12/02 11:44:49;;;;;;;25.20;17.02;;;;;;;;;;4833662;29;20555;-77
2021/12/02 11:47:16;;;;;;;26.55;17.08;;;;;;;;;;4843105;29;20034;-78
2021/12/02 11:49:42;;;;;;;27.88;16.60;;;;;;;;;;4853802;29;20357;-78
2021/12/02 11:52:09;;;;;;;23.50;14.20;;;;;;;;;;4859491;29;20089;-78
2021/12/02 11:54:36;;;;;;;22.27;14.60;;;;;;;;;;4838979;29;20046;-78
2021/12/02 11:57:03;;;;;;;21.77;14.38;;;;;;;;;;4841271;29;20117;-78
2021/12/02 11:59:29;;;;;;;20.95;14.07;;;;;;;;;;4837873;29;20045;-78
2021/12/02 12:01:56;;;;;;;21.25;12.48;;;;;;;;;;4841099;29;20041;-78
2021/12/02 12:04:22;;;;;;;17.00;10.73;;;;;;;;;;4824507;29;20115;-78
2021/12/02 12:06:53;;;;;;;19.02;9.63;;;;;;;;;;4841429;29;20037;-78
2021/12/02 12:09:25;;;;;;;9.40;4.50;;;;;;;;;;4836801;29;20061;-78
2021/12/02 12:11:52;;;;;;;6.80;3.53;;;;;;;;;;4833406;29;20039;-78
2021/12/02 12:14:32;;;;;;;7.45;3.42;;;;;;;;;;4834859;29;20045;-78
2021/12/02 12:17:12;;;;;;;8.82;2.58;;;;;;;;;;4839500;29;20045;-78
2021/12/02 12:19:40;;;;;;;10.05;3.78;;;;;;;;;;4829462;29;20037;-78
2021/12/02 12:22:08;;;;;;;8.57;4.10;;;;;;;;;;4837450;29;20391;-79
2021/12/02 12:24:53;;;;;;;12.60;4.95;;;;;;;;;;4822258;29;20075;-78
2021/12/02 12:27:22;;;;;;;12.18;5.72;;;;;;;;;;4830970;29;20042;-78
2021/12/02 12:30:06;;;;;;;15.00;8.02;;;;;;;;;;4823658;29;20071;-78
2021/12/02 12:32:55;;;;;;;15.93;8.38;;;;;;;;;;4851122;29;20041;-78
2021/12/02 12:38:32;;;;;;;15.63;9.55;;;;;;;;;;4830787;29;20422;-78
2021/12/02 12:41:18;;;;;;;17.55;9.82;;;;;;;;;;4818633;29;20073;-78
2021/12/02 12:43:51;;;;;;;21.75;12.15;;;;;;;;;;4846873;29;20064;-78
2021/12/02 12:46:19;;;;;;;19.15;9.43;;;;;;;;;;4840477;29;20045;-78
2021/12/02 12:48:45;;;;;;;14.82;7.70;;;;;;;;;;4822182;29;20105;-78
2021/12/02 12:51:16;;;;;;;14.80;7.15;;;;;;;;;;4841980;29;20388;-78
2021/12/02 12:53:43;;;;;;;15.35;7.32;;;;;;;;;;4834544;29;20042;-78
2021/12/02 12:56:11;;;;;;;11.75;5.10;;;;;;;;;;4837328;29;20080;-78
2021/12/02 12:59:00;;;;;;;7.68;3.17;;;;;;;;;;4828477;29;20065;-78
2021/12/02 13:01:27;;;;;;;7.90;2.45;;;;;;;;;;4825491;29;20621;-78
2021/12/02 13:04:07;;;;;;;4.18;1.85;;;;;;;;;;4833523;29;20041;-78
2021/12/02 13:06:47;;;;;;;6.80;1.48;;;;;;;;;;4827886;29;20065;-78
2021/12/02 13:09:34;;;;;;;4.15;1.27;;;;;;;;;;4837849;29;20041;-78
2021/12/02 13:12:03;;;;;;;6.65;1.95;;;;;;;;;;4826337;29;20456;-78
2021/12/02 13:14:29;;;;;;;12.23;2.92;;;;;;;;;;4828298;29;20045;-78
2021/12/02 13:16:56;;;;;;;5.85;1.88;;;;;;;;;;4839419;29;20071;-78
2021/12/02 13:19:22;;;;;;;5.65;1.30;;;;;;;;;;4839902;29;20141;-78
2021/12/02 13:21:56;;;;;;;5.50;1.50;;;;;;;;;;4843404;29;20700;-78
2021/12/02 13:24:31;;;;;;;5.97;1.30;;;;;;;;;;4837349;29;20041;-78
2021/12/02 13:27:02;;;;;;;5.00;1.27;;;;;;;;;;4833907;29;20109;-78
2021/12/02 13:29:29;;;;;;;7.60;1.60;;;;;;;;;;4831683;29;20038;-78
2021/12/02 13:31:59;;;;;;;4.63;1.55;;;;;;;;;;4838101;29;20042;-78
2021/12/02 13:34:27;;;;;;;8.80;2.03;;;;;;;;;;4839382;29;20497;-78
2021/12/02 13:36:57;;;;;;;7.70;2.40;;;;;;;;;;4839253;29;20134;-78
2021/12/02 13:39:25;;;;;;;5.22;2.35;;;;;;;;;;4838474;29;20062;-78
2021/12/02 13:41:56;;;;;;;7.05;2.25;;;;;;;;;;4834304;29;20117;-78
2021/12/02 13:44:24;;;;;;;5.40;1.15;;;;;;;;;;4847508;29;20057;-78
2021/12/02 13:46:50;;;;;;;5.20;2.30;;;;;;;;;;4834746;29;20842;-78
2021/12/02 13:49:25;;;;;;;11.07;4.95;;;;;;;;;;4837926;29;20042;-78
2021/12/02 13:54:38;;;;;;;8.82;2.42;;;;;;;;;;4826206;29;20060;-78
2021/12/02 13:57:23;;;;;;;7.70;2.60;;;;;;;;;;4821385;29;20430;-78
2021/12/02 13:59:51;;;;;;;7.32;2.40;;;;;;;;;;4844168;29;20041;-78
2021/12/02 14:02:21;;;;;;;6.78;2.25;;;;;;;;;;4842641;29;20384;-77
2021/12/02 14:04:48;;;;;;;6.82;2.05;;;;;;;;;;4822252;29;20496;-77
2021/12/02 14:07:34;;;;;;;5.05;2.33;;;;;;;;;;4839163;29;20034;-77
2021/12/02 14:10:00;;;;;;;11.50;2.92;;;;;;;;;;4832606;29;20173;-78
2021/12/02 14:12:39;;;;;;;9.13;2.97;;;;;;;;;;4821097;29;20549;-78
2021/12/02 14:15:07;;;;;;;7.38;2.20;;;;;;;;;;4820638;29;20158;-78
2021/12/02 14:17:35;;;;;;;5.80;0.70;;;;;;;;;;4821041;29;20046;-78
2021/12/02 14:20:03;;;;;;;2.17;0.65;;;;;;;;;;4834178;29;20153;-77
2021/12/02 14:22:29;;;;;;;2.00;0.30;;;;;;;;;;4834899;29;20035;-77
2021/12/02 14:24:56;;;;;;;4.85;0.40;;;;;;;;;;4832561;29;20030;-77
2021/12/02 14:27:22;;;;;;;1.25;0.30;;;;;;;;;;4838958;29;20153;-77
2021/12/02 14:29:48;;;;;;;2.00;0.30;;;;;;;;;;4838242;29;20469;-77
2021/12/02 14:32:14;;;;;;;0.20;0.10;;;;;;;;;;4838610;29;20063;-77
2021/12/02 14:34:40;;;;;;;0.77;0.10;;;;;;;;;;4838843;29;20090;-77
2021/12/02 14:37:10;;;;;;;2.63;0.55;;;;;;;;;;4853888;29;20049;-77
2021/12/02 14:39:39;;;;;;;2.00;0.10;;;;;;;;;;4844709;29;20042;-77
2021/12/02 14:42:05;;;;;;;2.78;0.28;;;;;;;;;;4839057;29;20038;-77
2021/12/02 14:44:36;;;;;;;2.08;0.20;;;;;;;;;;4838511;29;20041;-77
2021/12/02 14:47:04;;;;;;;0.40;0.17;;;;;;;;;;4822682;29;20085;-77
2021/12/02 14:49:37;;;;;;;3.80;0.40;;;;;;;;;;4830616;29;20052;-77
2021/12/02 14:52:06;;;;;;;0.68;0.03;;;;;;;;;;4849691;29;20066;-77
2021/12/02 14:54:41;;;;;;;3.67;1.30;;;;;;;;;;4839545;29;20630;-77
2021/12/02 14:57:19;;;;;;;1.95;0.90;;;;;;;;;;4842975;29;20046;-77
2021/12/02 15:00:08;;;;;;;1.80;0.50;;;;;;;;;;4845217;29;20037;-76
2021/12/02 15:02:39;;;;;;;3.00;0.80;;;;;;;;;;4819688;29;20054;-77
2021/12/02 15:05:11;;;;;;;4.68;1.25;;;;;;;;;;4838714;29;20054;-76
2021/12/02 15:07:46;;;;;;;2.45;0.70;;;;;;;;;;4841134;29;20046;-76